sensor_id;sensor_type;location;lat;lon;timestamp;P1;P2;P0
47709;PMS7003;33473;51.640;5.892;2023-04-01T00:10:39;0.01;2.3;1.75
47709;PMS7003;33473;51.640;5.892;2023-04-01T00:23:59;0.01;2.3;1.64
47709;PMS7003;33473;51.640;5.892;2023-04-01T00:37:18;0.01;1.64;1.32
47709;PMS7003;33473;51.640;5.892;2023-04-01T00:50:38;0.01;1.64;1.32
47709;PMS7003;33473;51.640;5.892;2023-04-01T01:03:58;0.01;1.75;1.32
47709;PMS7003;33473;51.640;5.892;2023-04-01T01:17:18;0.01;1.75;1.54
47709;PMS7003;33473;51.640;5.892;2023-04-01T01:30:37;0.01;2.3;1.75
47709;PMS7003;33473;51.640;5.892;2023-04-01T01:43:57;0.01;2.84;2.08
47709;PMS7003;33473;51.640;5.892;2023-04-01T01:57:17;0.48;3.61;2.52
47709;PMS7003;33473;51.640;5.892;2023-04-01T02:10:36;0.36;3.61;2.52
47709;PMS7003;33473;51.640;5.892;2023-04-01T02:23:56;1.08;3.71;2.62
47709;PMS7003;33473;51.640;5.892;2023-04-01T02:37:16;2.16;5.24;3.61
47709;PMS7003;33473;51.640;5.892;2023-04-01T02:50:35;2.28;5.13;3.71
47709;PMS7003;33473;51.640;5.892;2023-04-01T03:03:55;3.6;6.55;4.04
47709;PMS7003;33473;51.640;5.892;2023-04-01T03:17:15;5.53;8.29;5.46
47709;PMS7003;33473;51.640;5.892;2023-04-01T03:30:35;6.37;9.06;5.79
47709;PMS7003;33473;51.640;5.892;2023-04-01T03:43:54;7.93;10.36;6.11
47709;PMS7003;33473;51.640;5.892;2023-04-01T03:57:14;7.09;9.6;5.68
47709;PMS7003;33473;51.640;5.892;2023-04-01T04:10:34;7.69;9.93;5.79
47709;PMS7003;33473;51.640;5.892;2023-04-01T04:23:53;6.49;9.06;4.8
47709;PMS7003;33473;51.640;5.892;2023-04-01T04:37:13;5.53;8.08;4.59
47709;PMS7003;33473;51.640;5.892;2023-04-01T04:50:33;4.09;6.99;4.15
47709;PMS7003;33473;51.640;5.892;2023-04-01T05:03:53;3.6;6.55;3.82
47709;PMS7003;33473;51.640;5.892;2023-04-01T05:17:12;3.85;6.66;3.93
47709;PMS7003;33473;51.640;5.892;2023-04-01T05:30:32;5.29;6.88;4.15
47709;PMS7003;33473;51.640;5.892;2023-04-01T05:43:52;4.33;6.77;4.37
47709;PMS7003;33473;51.640;5.892;2023-04-01T05:57:11;5.53;8.29;4.8
47709;PMS7003;33473;51.640;5.892;2023-04-01T06:10:31;7.57;10.15;5.46
47709;PMS7003;33473;51.640;5.892;2023-04-01T06:23:51;9.49;11.78;6.77
47709;PMS7003;33473;51.640;5.892;2023-04-01T06:50:30;16.21;17.45;9.38
47709;PMS7003;33473;51.640;5.892;2023-04-01T07:17:10;15.25;16.14;8.18
47709;PMS7003;33473;51.640;5.892;2023-04-01T07:30:29;12.61;14.29;7.53
47709;PMS7003;33473;51.640;5.892;2023-04-01T07:43:49;13.21;14.4;6.99
47709;PMS7003;33473;51.640;5.892;2023-04-01T07:57:09;12.01;13.96;6.44
47709;PMS7003;33473;51.640;5.892;2023-04-01T08:10:28;17.77;18.21;8.84
47709;PMS7003;33473;51.640;5.892;2023-04-01T08:23:48;13.45;15.27;7.42
47709;PMS7003;33473;51.640;5.892;2023-04-01T08:37:08;12.49;13.96;6.88
47709;PMS7003;33473;51.640;5.892;2023-04-01T08:50:27;9.13;11.35;6.44
47709;PMS7003;33473;51.640;5.892;2023-04-01T09:03:47;15.61;12.65;6.66
47709;PMS7003;33473;51.640;5.892;2023-04-01T09:17:07;11.89;13.85;7.09
47709;PMS7003;33473;51.640;5.892;2023-04-01T09:30:27;12.13;14.07;7.42
47709;PMS7003;33473;51.640;5.892;2023-04-01T09:43:46;14.41;15.27;7.75
47709;PMS7003;33473;51.640;5.892;2023-04-01T09:57:06;16.21;16.9;8.95
47709;PMS7003;33473;51.640;5.892;2023-04-01T10:10:25;13.33;14.83;7.2
47709;PMS7003;33473;51.640;5.892;2023-04-01T10:23:45;14.65;15.71;7.86
47709;PMS7003;33473;51.640;5.892;2023-04-01T10:37:05;11.17;12.98;7.42
47709;PMS7003;33473;51.640;5.892;2023-04-01T10:50:25;10.21;12.44;6.55
47709;PMS7003;33473;51.640;5.892;2023-04-01T11:03:44;9.73;11.67;6.77
47709;PMS7003;33473;51.640;5.892;2023-04-01T11:17:04;10.09;12.33;6.66
47709;PMS7003;33473;51.640;5.892;2023-04-01T11:30:24;8.41;10.58;6.22
47709;PMS7003;33473;51.640;5.892;2023-04-01T11:43:43;10.21;11.67;6.55
47709;PMS7003;33473;51.640;5.892;2023-04-01T11:57:03;7.69;9.17;5.9
47709;PMS7003;33473;51.640;5.892;2023-04-01T12:10:23;16.21;10.69;6.33
47709;PMS7003;33473;51.640;5.892;2023-04-01T12:23:43;10.45;11.89;7.2
47709;PMS7003;33473;51.640;5.892;2023-04-01T12:37:02;12.73;14.4;7.53
47709;PMS7003;33473;51.640;5.892;2023-04-01T12:50:22;7.09;9.38;5.35
47709;PMS7003;33473;51.640;5.892;2023-04-01T13:03:42;6.37;8.84;5.57
47709;PMS7003;33473;51.640;5.892;2023-04-01T13:17:01;6.13;8.84;5.57
47709;PMS7003;33473;51.640;5.892;2023-04-01T13:30:21;5.53;8.29;5.57
47709;PMS7003;33473;51.640;5.892;2023-04-01T13:43:41;6.37;9.06;5.46
47709;PMS7003;33473;51.640;5.892;2023-04-01T13:57:01;6.85;9.49;5.9
47709;PMS7003;33473;51.640;5.892;2023-04-01T14:10:20;5.77;8.51;5.35
47709;PMS7003;33473;51.640;5.892;2023-04-01T14:23:40;7.81;10.36;6.11
47709;PMS7003;33473;51.640;5.892;2023-04-01T14:37:00;7.57;9.93;6.55
47709;PMS7003;33473;51.640;5.892;2023-04-01T14:50:19;7.81;10.15;6.22
47709;PMS7003;33473;51.640;5.892;2023-04-01T15:03:39;8.41;10.8;6.66
47709;PMS7003;33473;51.640;5.892;2023-04-01T15:16:59;9.61;11.13;6.88
47709;PMS7003;33473;51.640;5.892;2023-04-01T15:30:19;9.01;11.24;6.88
47709;PMS7003;33473;51.640;5.892;2023-04-01T15:43:38;8.65;11.13;6.88
47709;PMS7003;33473;51.640;5.892;2023-04-01T15:56:58;9.97;12.22;7.75
47709;PMS7003;33473;51.640;5.892;2023-04-01T16:10:18;11.29;13.42;8.08
47709;PMS7003;33473;51.640;5.892;2023-04-01T16:23:37;10.81;12.76;8.29
47709;PMS7003;33473;51.640;5.892;2023-04-01T16:36:57;11.05;12.76;8.08
47709;PMS7003;33473;51.640;5.892;2023-04-01T16:50:17;7.09;9.71;6.11
47709;PMS7003;33473;51.640;5.892;2023-04-01T17:03:37;8.65;10.69;7.2
47709;PMS7003;33473;51.640;5.892;2023-04-01T17:16:56;7.93;10.36;6.77
47709;PMS7003;33473;51.640;5.892;2023-04-01T17:30:16;1.56;4.7;3.5
47709;PMS7003;33473;51.640;5.892;2023-04-01T17:43:36;5.17;7.97;5.9
47709;PMS7003;33473;51.640;5.892;2023-04-01T17:56:55;2.28;5.35;3.82
47709;PMS7003;33473;51.640;5.892;2023-04-01T18:10:15;5.29;7.97;5.13
47709;PMS7003;33473;51.640;5.892;2023-04-01T18:23:35;3.73;5.79;3.71
47709;PMS7003;33473;51.640;5.892;2023-04-01T18:36:55;5.17;7.97;4.91
47709;PMS7003;33473;51.640;5.892;2023-04-01T18:50:14;3.97;6.88;4.48
47709;PMS7003;33473;51.640;5.892;2023-04-01T19:03:34;5.77;8.4;5.24
47709;PMS7003;33473;51.640;5.892;2023-04-01T19:16:54;7.93;10.47;6.88
47709;PMS7003;33473;51.640;5.892;2023-04-01T19:30:13;12.85;14.07;8.62
47709;PMS7003;33473;51.640;5.892;2023-04-01T19:43:33;10.81;13.09;7.97
47709;PMS7003;33473;51.640;5.892;2023-04-01T19:56:53;10.21;12.54;8.29
47709;PMS7003;33473;51.640;5.892;2023-04-01T20:10:13;9.25;11.67;7.53
47709;PMS7003;33473;51.640;5.892;2023-04-01T20:23:32;8.05;10.58;6.55
47709;PMS7003;33473;51.640;5.892;2023-04-01T20:36:52;9.97;12.11;7.86
47709;PMS7003;33473;51.640;5.892;2023-04-01T20:50:12;7.93;10.36;6.77
47709;PMS7003;33473;51.640;5.892;2023-04-01T21:03:31;6.49;9.17;6.33
47709;PMS7003;33473;51.640;5.892;2023-04-01T21:16:51;8.65;11.13;7.53
47709;PMS7003;33473;51.640;5.892;2023-04-01T21:30:11;6.97;9.6;5.9
47709;PMS7003;33473;51.640;5.892;2023-04-01T21:43:30;9.25;11.67;7.64
47709;PMS7003;33473;51.640;5.892;2023-04-01T21:56:50;8.89;11.35;7.64
47709;PMS7003;33473;51.640;5.892;2023-04-01T22:10:10;8.65;11.13;7.31
47709;PMS7003;33473;51.640;5.892;2023-04-01T22:23:29;10.93;13.2;7.64
47709;PMS7003;33473;51.640;5.892;2023-04-01T22:36:49;9.37;11.78;7.42
47709;PMS7003;33473;51.640;5.892;2023-04-01T22:50:09;9.01;11.45;7.2
47709;PMS7003;33473;51.640;5.892;2023-04-01T23:03:28;6.37;9.06;6.0
47709;PMS7003;33473;51.640;5.892;2023-04-01T23:16:48;6.13;8.62;6.0
47709;PMS7003;33473;51.640;5.892;2023-04-01T23:30:07;4.81;7.64;5.68
47709;PMS7003;33473;51.640;5.892;2023-04-01T23:43:27;4.33;7.2;5.24
47709;PMS7003;33473;51.640;5.892;2023-04-01T23:56:47;5.05;7.86;5.79
